Ragersville, Ohio
Current Conditions -  °F | °C
As of 11:25 AM on Wednesday 22 Oct 2014 (Local Time) from KPHD Reporting Station
Overcast Overcast  
Wind Chill:   Ceiling: 1500
Heat Index:   Visibility: 10mi
Dew Point:   Wind: 8mph
Humidity: 83%   Direction: 350°N
Pressure: 30.24"   Gusts: NA
Location:  40.5178°N, 81.673°W
Report Text: KPHD 221525Z AUTO 35007KT 10SM OVC015 09/07 A3024 RMK AO2 T00940067
Loading
Personal Weather Stations






























Interactive Weather Map
Tropical Storm Tracking
New forecast layout! Learn more

10-Day Weather Forecast

Advertisements
Track Severe Weather on mobile